sensor_id;sensor_type;location;lat;lon;timestamp;P1;durP1;ratioP1;P2;durP2;ratioP2
3613;SDS011;1821;50.936;6.854;2023-05-07T00:00:10;6.35;;;5.72;;
3613;SDS011;1821;50.936;6.854;2023-05-07T00:00:56;6.40;;;5.80;;
3613;SDS011;1821;50.936;6.854;2023-05-07T00:01:40;6.70;;;5.53;;
3613;SDS011;1821;50.936;6.854;2023-05-07T00:02:22;6.63;;;5.55;;
3613;SDS011;1821;50.936;6.854;2023-05-07T00:03:05;6.47;;;5.78;;
3613;SDS011;1821;50.936;6.854;2023-05-07T00:03:48;6.82;;;6.22;;
3613;SDS011;1821;50.936;6.854;2023-05-07T00:04:31;7.55;;;5.90;;
3613;SDS011;1821;50.936;6.854;2023-05-07T00:05:18;7.47;;;6.68;;
3613;SDS011;1821;50.936;6.854;2023-05-07T00:06:00;7.00;;;6.28;;
3613;SDS011;1821;50.936;6.854;2023-05-07T00:06:42;7.55;;;6.05;;
3613;SDS011;1821;50.936;6.854;2023-05-07T00:07:25;6.97;;;5.32;;
3613;SDS011;1821;50.936;6.854;2023-05-07T00:08:07;6.45;;;5.75;;
3613;SDS011;1821;50.936;6.854;2023-05-07T00:08:49;6.60;;;6.00;;
3613;SDS011;1821;50.936;6.854;2023-05-07T00:09:31;7.10;;;6.35;;
3613;SDS011;1821;50.936;6.854;2023-05-07T00:10:16;6.85;;;6.13;;
3613;SDS011;1821;50.936;6.854;2023-05-07T00:10:58;6.60;;;5.90;;
3613;SDS011;1821;50.936;6.854;2023-05-07T00:11:40;6.18;;;5.38;;
3613;SDS011;1821;50.936;6.854;2023-05-07T00:12:23;6.25;;;5.50;;
3613;SDS011;1821;50.936;6.854;2023-05-07T00:13:05;8.00;;;5.75;;
3613;SDS011;1821;50.936;6.854;2023-05-07T00:13:47;7.72;;;5.53;;
3613;SDS011;1821;50.936;6.854;2023-05-07T00:14:30;6.97;;;5.80;;
3613;SDS011;1821;50.936;6.854;2023-05-07T00:15:12;6.50;;;5.30;;
3613;SDS011;1821;50.936;6.854;2023-05-07T00:15:57;7.10;;;5.72;;
3613;SDS011;1821;50.936;6.854;2023-05-07T00:16:39;9.50;;;6.45;;
3613;SDS011;1821;50.936;6.854;2023-05-07T00:17:22;8.43;;;6.25;;
3613;SDS011;1821;50.936;6.854;2023-05-07T00:18:04;6.63;;;6.03;;
3613;SDS011;1821;50.936;6.854;2023-05-07T00:18:46;6.20;;;5.60;;
3613;SDS011;1821;50.936;6.854;2023-05-07T00:19:31;6.38;;;5.28;;
3613;SDS011;1821;50.936;6.854;2023-05-07T00:20:13;7.07;;;5.25;;
3613;SDS011;1821;50.936;6.854;2023-05-07T00:20:56;9.52;;;5.80;;
3613;SDS011;1821;50.936;6.854;2023-05-07T00:21:38;6.70;;;5.78;;
3613;SDS011;1821;50.936;6.854;2023-05-07T00:22:20;6.25;;;5.65;;
3613;SDS011;1821;50.936;6.854;2023-05-07T00:23:02;6.43;;;5.82;;
3613;SDS011;1821;50.936;6.854;2023-05-07T00:23:47;7.30;;;6.28;;
3613;SDS011;1821;50.936;6.854;2023-05-07T00:24:29;6.75;;;5.45;;
3613;SDS011;1821;50.936;6.854;2023-05-07T00:25:12;7.45;;;5.22;;
3613;SDS011;1821;50.936;6.854;2023-05-07T00:25:56;7.10;;;5.40;;
3613;SDS011;1821;50.936;6.854;2023-05-07T00:26:39;6.60;;;5.80;;
3613;SDS011;1821;50.936;6.854;2023-05-07T00:27:21;7.80;;;5.88;;
3613;SDS011;1821;50.936;6.854;2023-05-07T00:28:06;6.90;;;5.45;;
3613;SDS011;1821;50.936;6.854;2023-05-07T00:28:48;7.20;;;5.45;;
3613;SDS011;1821;50.936;6.854;2023-05-07T00:29:30;6.60;;;5.30;;
3613;SDS011;1821;50.936;6.854;2023-05-07T00:30:12;8.10;;;5.82;;
3613;SDS011;1821;50.936;6.854;2023-05-07T00:30:55;8.35;;;5.65;;
3613;SDS011;1821;50.936;6.854;2023-05-07T00:31:37;8.05;;;5.60;;
3613;SDS011;1821;50.936;6.854;2023-05-07T00:32:22;8.90;;;5.72;;
3613;SDS011;1821;50.936;6.854;2023-05-07T00:33:04;7.60;;;5.47;;
3613;SDS011;1821;50.936;6.854;2023-05-07T00:33:46;8.35;;;6.35;;
3613;SDS011;1821;50.936;6.854;2023-05-07T00:34:31;7.38;;;5.60;;
3613;SDS011;1821;50.936;6.854;2023-05-07T00:35:13;6.30;;;5.40;;
3613;SDS011;1821;50.936;6.854;2023-05-07T00:35:55;6.00;;;5.20;;
3613;SDS011;1821;50.936;6.854;2023-05-07T00:36:37;6.65;;;4.88;;
3613;SDS011;1821;50.936;6.854;2023-05-07T00:37:20;6.88;;;4.82;;
3613;SDS011;1821;50.936;6.854;2023-05-07T00:38:02;7.22;;;5.70;;
3613;SDS011;1821;50.936;6.854;2023-05-07T00:38:46;6.75;;;5.60;;
3613;SDS011;1821;50.936;6.854;2023-05-07T00:39:29;8.30;;;5.40;;
3613;SDS011;1821;50.936;6.854;2023-05-07T00:40:11;7.80;;;5.70;;
3613;SDS011;1821;50.936;6.854;2023-05-07T00:40:54;6.60;;;5.10;;
3613;SDS011;1821;50.936;6.854;2023-05-07T00:41:36;5.57;;;4.97;;
3613;SDS011;1821;50.936;6.854;2023-05-07T00:42:18;7.10;;;5.10;;
3613;SDS011;1821;50.936;6.854;2023-05-07T00:43:01;6.63;;;4.80;;
3613;SDS011;1821;50.936;6.854;2023-05-07T00:43:43;5.30;;;4.80;;
3613;SDS011;1821;50.936;6.854;2023-05-07T00:44:26;5.47;;;4.97;;
3613;SDS011;1821;50.936;6.854;2023-05-07T00:45:09;5.18;;;4.63;;
3613;SDS011;1821;50.936;6.854;2023-05-07T00:45:52;5.82;;;5.05;;
3613;SDS011;1821;50.936;6.854;2023-05-07T00:46:36;6.78;;;5.65;;
3613;SDS011;1821;50.936;6.854;2023-05-07T00:47:18;6.82;;;5.47;;
3613;SDS011;1821;50.936;6.854;2023-05-07T00:48:00;6.20;;;5.22;;
3613;SDS011;1821;50.936;6.854;2023-05-07T00:48:43;5.63;;;5.00;;
3613;SDS011;1821;50.936;6.854;2023-05-07T00:49:26;5.95;;;5.20;;
3613;SDS011;1821;50.936;6.854;2023-05-07T00:50:12;6.25;;;5.43;;
3613;SDS011;1821;50.936;6.854;2023-05-07T00:50:57;7.20;;;5.22;;
3613;SDS011;1821;50.936;6.854;2023-05-07T00:51:39;6.55;;;5.47;;
3613;SDS011;1821;50.936;6.854;2023-05-07T00:52:22;6.03;;;5.43;;
3613;SDS011;1821;50.936;6.854;2023-05-07T00:53:06;6.15;;;5.00;;
3613;SDS011;1821;50.936;6.854;2023-05-07T00:53:48;6.00;;;5.10;;
3613;SDS011;1821;50.936;6.854;2023-05-07T00:54:31;6.25;;;5.40;;
3613;SDS011;1821;50.936;6.854;2023-05-07T00:55:13;6.07;;;4.93;;
3613;SDS011;1821;50.936;6.854;2023-05-07T00:55:55;7.15;;;4.70;;
3613;SDS011;1821;50.936;6.854;2023-05-07T00:56:38;8.20;;;5.70;;
3613;SDS011;1821;50.936;6.854;2023-05-07T00:57:20;8.60;;;5.53;;
3613;SDS011;1821;50.936;6.854;2023-05-07T00:58:03;6.55;;;5.10;;
3613;SDS011;1821;50.936;6.854;2023-05-07T00:58:47;6.63;;;5.00;;
3613;SDS011;1821;50.936;6.854;2023-05-07T00:59:31;8.02;;;5.32;;
3613;SDS011;1821;50.936;6.854;2023-05-07T01:00:16;5.50;;;4.72;;
3613;SDS011;1821;50.936;6.854;2023-05-07T01:00:59;6.30;;;4.97;;
3613;SDS011;1821;50.936;6.854;2023-05-07T01:01:41;10.10;;;5.00;;
3613;SDS011;1821;50.936;6.854;2023-05-07T01:02:26;11.18;;;4.93;;
3613;SDS011;1821;50.936;6.854;2023-05-07T01:03:09;6.25;;;4.70;;
3613;SDS011;1821;50.936;6.854;2023-05-07T01:03:52;5.85;;;4.80;;
3613;SDS011;1821;50.936;6.854;2023-05-07T01:04:35;8.68;;;5.25;;
3613;SDS011;1821;50.936;6.854;2023-05-07T01:05:18;9.65;;;5.30;;
3613;SDS011;1821;50.936;6.854;2023-05-07T01:06:01;6.85;;;5.00;;
3613;SDS011;1821;50.936;6.854;2023-05-07T01:06:44;8.20;;;4.88;;
3613;SDS011;1821;50.936;6.854;2023-05-07T01:07:28;8.32;;;4.82;;
3613;SDS011;1821;50.936;6.854;2023-05-07T01:08:10;5.60;;;4.82;;
3613;SDS011;1821;50.936;6.854;2023-05-07T01:08:52;5.55;;;4.95;;
3613;SDS011;1821;50.936;6.854;2023-05-07T01:09:37;5.53;;;4.90;;
3613;SDS011;1821;50.936;6.854;2023-05-07T01:10:20;8.73;;;5.07;;
3613;SDS011;1821;50.936;6.854;2023-05-07T01:11:03;7.30;;;4.90;;
3613;SDS011;1821;50.936;6.854;2023-05-07T01:11:46;6.93;;;5.20;;
3613;SDS011;1821;50.936;6.854;2023-05-07T01:12:29;7.95;;;4.70;;
3613;SDS011;1821;50.936;6.854;2023-05-07T01:13:12;5.10;;;4.60;;
3613;SDS011;1821;50.936;6.854;2023-05-07T01:13:54;5.47;;;4.70;;
3613;SDS011;1821;50.936;6.854;2023-05-07T01:14:37;6.07;;;4.70;;
3613;SDS011;1821;50.936;6.854;2023-05-07T01:15:19;7.00;;;4.60;;
3613;SDS011;1821;50.936;6.854;2023-05-07T01:16:02;5.68;;;4.72;;
3613;SDS011;1821;50.936;6.854;2023-05-07T01:16:45;8.13;;;5.43;;
3613;SDS011;1821;50.936;6.854;2023-05-07T01:17:33;5.85;;;4.65;;
3613;SDS011;1821;50.936;6.854;2023-05-07T01:18:15;5.57;;;4.28;;
3613;SDS011;1821;50.936;6.854;2023-05-07T01:18:58;5.38;;;4.32;;
3613;SDS011;1821;50.936;6.854;2023-05-07T01:19:40;4.80;;;4.13;;
3613;SDS011;1821;50.936;6.854;2023-05-07T01:20:23;6.55;;;4.65;;
3613;SDS011;1821;50.936;6.854;2023-05-07T01:21:06;5.03;;;4.15;;
3613;SDS011;1821;50.936;6.854;2023-05-07T01:21:52;6.80;;;4.30;;
3613;SDS011;1821;50.936;6.854;2023-05-07T01:22:38;5.00;;;4.50;;
3613;SDS011;1821;50.936;6.854;2023-05-07T01:23:21;5.38;;;4.88;;
3613;SDS011;1821;50.936;6.854;2023-05-07T01:24:06;5.65;;;4.40;;
3613;SDS011;1821;50.936;6.854;2023-05-07T01:24:51;6.50;;;4.40;;
3613;SDS011;1821;50.936;6.854;2023-05-07T01:25:35;6.80;;;5.18;;
3613;SDS011;1821;50.936;6.854;2023-05-07T01:26:17;5.20;;;4.53;;
3613;SDS011;1821;50.936;6.854;2023-05-07T01:27:00;5.60;;;4.68;;
3613;SDS011;1821;50.936;6.854;2023-05-07T01:27:43;7.72;;;5.03;;
3613;SDS011;1821;50.936;6.854;2023-05-07T01:28:25;5.75;;;4.72;;
3613;SDS011;1821;50.936;6.854;2023-05-07T01:29:08;5.40;;;4.25;;
3613;SDS011;1821;50.936;6.854;2023-05-07T01:29:50;5.20;;;4.55;;
3613;SDS011;1821;50.936;6.854;2023-05-07T01:30:32;4.88;;;4.28;;
3613;SDS011;1821;50.936;6.854;2023-05-07T01:31:15;6.55;;;4.43;;
3613;SDS011;1821;50.936;6.854;2023-05-07T01:31:59;5.85;;;4.10;;
3613;SDS011;1821;50.936;6.854;2023-05-07T01:32:43;5.28;;;4.20;;
3613;SDS011;1821;50.936;6.854;2023-05-07T01:33:25;5.15;;;4.40;;
3613;SDS011;1821;50.936;6.854;2023-05-07T01:34:08;4.53;;;3.97;;
3613;SDS011;1821;50.936;6.854;2023-05-07T01:34:51;6.35;;;4.20;;
3613;SDS011;1821;50.936;6.854;2023-05-07T01:35:39;5.43;;;4.40;;
3613;SDS011;1821;50.936;6.854;2023-05-07T01:36:24;6.53;;;4.30;;
3613;SDS011;1821;50.936;6.854;2023-05-07T01:37:08;6.40;;;4.50;;
3613;SDS011;1821;50.936;6.854;2023-05-07T01:37:50;5.25;;;4.40;;
3613;SDS011;1821;50.936;6.854;2023-05-07T01:38:33;5.50;;;4.30;;
3613;SDS011;1821;50.936;6.854;2023-05-07T01:39:17;5.80;;;3.90;;
3613;SDS011;1821;50.936;6.854;2023-05-07T01:40:00;4.72;;;4.13;;
3613;SDS011;1821;50.936;6.854;2023-05-07T01:40:43;5.00;;;4.43;;
3613;SDS011;1821;50.936;6.854;2023-05-07T01:41:25;4.70;;;4.20;;
3613;SDS011;1821;50.936;6.854;2023-05-07T01:42:08;4.88;;;4.20;;
3613;SDS011;1821;50.936;6.854;2023-05-07T01:42:50;6.03;;;4.22;;
3613;SDS011;1821;50.936;6.854;2023-05-07T01:43:32;5.57;;;4.13;;
3613;SDS011;1821;50.936;6.854;2023-05-07T01:44:15;5.80;;;4.20;;
3613;SDS011;1821;50.936;6.854;2023-05-07T01:44:58;5.45;;;3.95;;
3613;SDS011;1821;50.936;6.854;2023-05-07T01:45:40;5.13;;;3.92;;
3613;SDS011;1821;50.936;6.854;2023-05-07T01:46:23;6.30;;;4.20;;
3613;SDS011;1821;50.936;6.854;2023-05-07T01:47:06;6.10;;;3.90;;
3613;SDS011;1821;50.936;6.854;2023-05-07T01:47:49;4.30;;;3.90;;
3613;SDS011;1821;50.936;6.854;2023-05-07T01:48:32;4.78;;;3.75;;
3613;SDS011;1821;50.936;6.854;2023-05-07T01:49:17;6.10;;;4.18;;
3613;SDS011;1821;50.936;6.854;2023-05-07T01:49:59;5.45;;;4.18;;
3613;SDS011;1821;50.936;6.854;2023-05-07T01:50:42;5.30;;;4.13;;
3613;SDS011;1821;50.936;6.854;2023-05-07T01:51:25;5.80;;;4.20;;
3613;SDS011;1821;50.936;6.854;2023-05-07T01:52:07;4.63;;;3.80;;
3613;SDS011;1821;50.936;6.854;2023-05-07T01:52:50;5.70;;;4.00;;
3613;SDS011;1821;50.936;6.854;2023-05-07T01:54:25;4.40;;;3.88;;
3613;SDS011;1821;50.936;6.854;2023-05-07T01:55:10;5.22;;;4.00;;
3613;SDS011;1821;50.936;6.854;2023-05-07T01:55:53;5.40;;;3.65;;
3613;SDS011;1821;50.936;6.854;2023-05-07T01:56:35;5.50;;;3.67;;
3613;SDS011;1821;50.936;6.854;2023-05-07T01:57:18;6.45;;;4.00;;
3613;SDS011;1821;50.936;6.854;2023-05-07T01:58:00;6.03;;;4.25;;
3613;SDS011;1821;50.936;6.854;2023-05-07T01:58:44;5.30;;;4.20;;
3613;SDS011;1821;50.936;6.854;2023-05-07T01:59:27;4.88;;;4.38;;
3613;SDS011;1821;50.936;6.854;2023-05-07T02:00:09;4.85;;;3.75;;
3613;SDS011;1821;50.936;6.854;2023-05-07T02:00:52;4.82;;;3.80;;
3613;SDS011;1821;50.936;6.854;2023-05-07T02:01:34;5.22;;;3.90;;
3613;SDS011;1821;50.936;6.854;2023-05-07T02:02:17;6.28;;;4.30;;
3613;SDS011;1821;50.936;6.854;2023-05-07T02:02:59;6.30;;;4.13;;
3613;SDS011;1821;50.936;6.854;2023-05-07T02:03:41;5.20;;;3.80;;
3613;SDS011;1821;50.936;6.854;2023-05-07T02:04:26;5.85;;;4.35;;
3613;SDS011;1821;50.936;6.854;2023-05-07T02:05:11;5.10;;;4.30;;
3613;SDS011;1821;50.936;6.854;2023-05-07T02:05:56;4.82;;;4.32;;
3613;SDS011;1821;50.936;6.854;2023-05-07T02:06:38;4.70;;;4.20;;
3613;SDS011;1821;50.936;6.854;2023-05-07T02:07:21;5.45;;;3.80;;
3613;SDS011;1821;50.936;6.854;2023-05-07T02:08:03;6.53;;;4.25;;
3613;SDS011;1821;50.936;6.854;2023-05-07T02:08:46;6.60;;;4.28;;
3613;SDS011;1821;50.936;6.854;2023-05-07T02:09:30;6.05;;;4.20;;
3613;SDS011;1821;50.936;6.854;2023-05-07T02:10:12;5.35;;;4.00;;
3613;SDS011;1821;50.936;6.854;2023-05-07T02:10:55;5.07;;;3.90;;
3613;SDS011;1821;50.936;6.854;2023-05-07T02:11:37;6.15;;;4.03;;
3613;SDS011;1821;50.936;6.854;2023-05-07T02:12:19;6.30;;;4.10;;
3613;SDS011;1821;50.936;6.854;2023-05-07T02:13:04;5.03;;;3.80;;
3613;SDS011;1821;50.936;6.854;2023-05-07T02:13:46;5.53;;;4.17;;
3613;SDS011;1821;50.936;6.854;2023-05-07T02:14:31;5.90;;;4.32;;
3613;SDS011;1821;50.936;6.854;2023-05-07T02:15:15;4.40;;;4.00;;
3613;SDS011;1821;50.936;6.854;2023-05-07T02:15:58;4.93;;;4.05;;
3613;SDS011;1821;50.936;6.854;2023-05-07T02:16:40;7.00;;;4.32;;
3613;SDS011;1821;50.936;6.854;2023-05-07T02:17:23;5.93;;;5.05;;
3613;SDS011;1821;50.936;6.854;2023-05-07T02:18:07;6.88;;;4.50;;
3613;SDS011;1821;50.936;6.854;2023-05-07T02:18:50;5.68;;;3.70;;
3613;SDS011;1821;50.936;6.854;2023-05-07T02:19:32;5.80;;;4.03;;
3613;SDS011;1821;50.936;6.854;2023-05-07T02:20:15;5.57;;;4.10;;
3613;SDS011;1821;50.936;6.854;2023-05-07T02:20:57;5.10;;;4.15;;
3613;SDS011;1821;50.936;6.854;2023-05-07T02:21:39;5.95;;;4.20;;
3613;SDS011;1821;50.936;6.854;2023-05-07T02:22:24;5.22;;;3.67;;
3613;SDS011;1821;50.936;6.854;2023-05-07T02:23:09;5.70;;;4.00;;
3613;SDS011;1821;50.936;6.854;2023-05-07T02:23:51;5.85;;;3.97;;
3613;SDS011;1821;50.936;6.854;2023-05-07T02:24:33;6.55;;;4.13;;
3613;SDS011;1821;50.936;6.854;2023-05-07T02:25:15;6.38;;;4.80;;
3613;SDS011;1821;50.936;6.854;2023-05-07T02:25:58;7.82;;;4.72;;
3613;SDS011;1821;50.936;6.854;2023-05-07T02:26:40;5.50;;;4.00;;
3613;SDS011;1821;50.936;6.854;2023-05-07T02:27:23;4.93;;;4.15;;
3613;SDS011;1821;50.936;6.854;2023-05-07T02:28:05;4.88;;;4.30;;
3613;SDS011;1821;50.936;6.854;2023-05-07T02:28:47;4.85;;;4.35;;
3613;SDS011;1821;50.936;6.854;2023-05-07T02:29:29;5.43;;;4.32;;
3613;SDS011;1821;50.936;6.854;2023-05-07T02:30:14;5.53;;;4.40;;
3613;SDS011;1821;50.936;6.854;2023-05-07T02:30:59;6.03;;;4.20;;
3613;SDS011;1821;50.936;6.854;2023-05-07T02:31:44;6.47;;;3.90;;
3613;SDS011;1821;50.936;6.854;2023-05-07T02:32:26;7.55;;;4.00;;
3613;SDS011;1821;50.936;6.854;2023-05-07T02:33:09;6.75;;;3.90;;
3613;SDS011;1821;50.936;6.854;2023-05-07T02:33:54;6.75;;;4.00;;
3613;SDS011;1821;50.936;6.854;2023-05-07T02:34:36;6.10;;;4.20;;
3613;SDS011;1821;50.936;6.854;2023-05-07T02:35:18;7.10;;;4.20;;
3613;SDS011;1821;50.936;6.854;2023-05-07T02:36:09;7.20;;;4.20;;
3613;SDS011;1821;50.936;6.854;2023-05-07T02:36:54;4.80;;;4.00;;
3613;SDS011;1821;50.936;6.854;2023-05-07T02:37:39;5.30;;;4.60;;
3613;SDS011;1821;50.936;6.854;2023-05-07T02:38:21;5.07;;;4.20;;
3613;SDS011;1821;50.936;6.854;2023-05-07T02:39:06;5.30;;;4.22;;
3613;SDS011;1821;50.936;6.854;2023-05-07T02:39:51;4.90;;;4.25;;
3613;SDS011;1821;50.936;6.854;2023-05-07T02:40:33;5.50;;;4.25;;
3613;SDS011;1821;50.936;6.854;2023-05-07T02:41:19;5.28;;;4.35;;
3613;SDS011;1821;50.936;6.854;2023-05-07T02:42:04;7.07;;;4.30;;
3613;SDS011;1821;50.936;6.854;2023-05-07T02:42:46;5.90;;;3.80;;
3613;SDS011;1821;50.936;6.854;2023-05-07T02:43:31;4.90;;;4.00;;
3613;SDS011;1821;50.936;6.854;2023-05-07T02:44:13;5.20;;;3.90;;
3613;SDS011;1821;50.936;6.854;2023-05-07T02:44:56;5.45;;;4.40;;
3613;SDS011;1821;50.936;6.854;2023-05-07T02:45:38;6.40;;;4.78;;
3613;SDS011;1821;50.936;6.854;2023-05-07T02:46:20;6.78;;;4.70;;
3613;SDS011;1821;50.936;6.854;2023-05-07T02:47:03;7.70;;;4.47;;
3613;SDS011;1821;50.936;6.854;2023-05-07T02:47:45;5.55;;;4.60;;
3613;SDS011;1821;50.936;6.854;2023-05-07T02:48:28;4.78;;;4.28;;
3613;SDS011;1821;50.936;6.854;2023-05-07T02:49:10;4.97;;;4.40;;
3613;SDS011;1821;50.936;6.854;2023-05-07T02:49:53;5.10;;;4.05;;
3613;SDS011;1821;50.936;6.854;2023-05-07T02:50:35;6.10;;;4.40;;
3613;SDS011;1821;50.936;6.854;2023-05-07T02:51:21;5.53;;;4.00;;
3613;SDS011;1821;50.936;6.854;2023-05-07T02:52:06;7.63;;;4.35;;
3613;SDS011;1821;50.936;6.854;2023-05-07T02:52:52;4.82;;;4.00;;
3613;SDS011;1821;50.936;6.854;2023-05-07T02:53:34;5.35;;;3.90;;
3613;SDS011;1821;50.936;6.854;2023-05-07T02:54:16;4.57;;;4.13;;
3613;SDS011;1821;50.936;6.854;2023-05-07T02:55:01;7.00;;;4.75;;
3613;SDS011;1821;50.936;6.854;2023-05-07T02:55:44;5.90;;;4.40;;
3613;SDS011;1821;50.936;6.854;2023-05-07T02:56:26;4.40;;;4.00;;
3613;SDS011;1821;50.936;6.854;2023-05-07T02:57:08;4.60;;;3.85;;
3613;SDS011;1821;50.936;6.854;2023-05-07T02:57:50;6.32;;;4.20;;
3613;SDS011;1821;50.936;6.854;2023-05-07T02:58:33;7.55;;;4.10;;
3613;SDS011;1821;50.936;6.854;2023-05-07T02:59:15;8.18;;;4.20;;
3613;SDS011;1821;50.936;6.854;2023-05-07T02:59:58;5.85;;;4.20;;
3613;SDS011;1821;50.936;6.854;2023-05-07T03:00:40;6.50;;;4.10;;
3613;SDS011;1821;50.936;6.854;2023-05-07T03:01:22;5.97;;;3.80;;
3613;SDS011;1821;50.936;6.854;2023-05-07T03:02:05;5.43;;;4.18;;
3613;SDS011;1821;50.936;6.854;2023-05-07T03:02:47;5.25;;;3.80;;
3613;SDS011;1821;50.936;6.854;2023-05-07T03:03:29;5.50;;;3.80;;
3613;SDS011;1821;50.936;6.854;2023-05-07T03:04:14;4.40;;;4.00;;
3613;SDS011;1821;50.936;6.854;2023-05-07T03:04:57;4.90;;;4.38;;
3613;SDS011;1821;50.936;6.854;2023-05-07T03:05:41;6.20;;;4.60;;
3613;SDS011;1821;50.936;6.854;2023-05-07T03:06:23;7.35;;;4.45;;
3613;SDS011;1821;50.936;6.854;2023-05-07T03:07:05;7.00;;;4.50;;
3613;SDS011;1821;50.936;6.854;2023-05-07T03:07:48;5.30;;;4.28;;
3613;SDS011;1821;50.936;6.854;2023-05-07T03:08:30;5.10;;;4.00;;
3613;SDS011;1821;50.936;6.854;2023-05-07T03:09:12;4.75;;;4.25;;
3613;SDS011;1821;50.936;6.854;2023-05-07T03:09:55;5.35;;;4.20;;
3613;SDS011;1821;50.936;6.854;2023-05-07T03:10:37;4.80;;;3.70;;
3613;SDS011;1821;50.936;6.854;2023-05-07T03:11:19;4.80;;;4.03;;
3613;SDS011;1821;50.936;6.854;2023-05-07T03:12:04;5.70;;;4.00;;
3613;SDS011;1821;50.936;6.854;2023-05-07T03:12:46;4.28;;;3.72;;
3613;SDS011;1821;50.936;6.854;2023-05-07T03:13:29;4.63;;;4.10;;
3613;SDS011;1821;50.936;6.854;2023-05-07T03:14:11;6.25;;;4.22;;
3613;SDS011;1821;50.936;6.854;2023-05-07T03:14:53;5.60;;;3.90;;
3613;SDS011;1821;50.936;6.854;2023-05-07T03:15:36;5.80;;;4.30;;
3613;SDS011;1821;50.936;6.854;2023-05-07T03:16:18;5.72;;;4.15;;
3613;SDS011;1821;50.936;6.854;2023-05-07T03:17:01;4.50;;;3.80;;
3613;SDS011;1821;50.936;6.854;2023-05-07T03:17:43;4.67;;;4.17;;
3613;SDS011;1821;50.936;6.854;2023-05-07T03:18:25;4.70;;;4.20;;
3613;SDS011;1821;50.936;6.854;2023-05-07T03:19:07;5.78;;;4.40;;
3613;SDS011;1821;50.936;6.854;2023-05-07T03:19:52;5.60;;;4.32;;
3613;SDS011;1821;50.936;6.854;2023-05-07T03:20:35;6.45;;;4.13;;
3613;SDS011;1821;50.936;6.854;2023-05-07T03:21:17;7.68;;;4.32;;
3613;SDS011;1821;50.936;6.854;2023-05-07T03:22:00;5.07;;;4.00;;
3613;SDS011;1821;50.936;6.854;2023-05-07T03:22:44;5.05;;;4.05;;
3613;SDS011;1821;50.936;6.854;2023-05-07T03:23:26;4.40;;;3.78;;
3613;SDS011;1821;50.936;6.854;2023-05-07T03:24:08;4.50;;;4.10;;
3613;SDS011;1821;50.936;6.854;2023-05-07T03:24:50;4.90;;;4.40;;
3613;SDS011;1821;50.936;6.854;2023-05-07T03:25:33;6.55;;;4.40;;
3613;SDS011;1821;50.936;6.854;2023-05-07T03:26:15;8.73;;;4.32;;
3613;SDS011;1821;50.936;6.854;2023-05-07T03:26:57;5.85;;;4.00;;
3613;SDS011;1821;50.936;6.854;2023-05-07T03:27:39;7.78;;;4.47;;
3613;SDS011;1821;50.936;6.854;2023-05-07T03:28:23;5.53;;;4.18;;
3613;SDS011;1821;50.936;6.854;2023-05-07T03:29:07;5.78;;;4.05;;
3613;SDS011;1821;50.936;6.854;2023-05-07T03:29:49;5.38;;;4.28;;
3613;SDS011;1821;50.936;6.854;2023-05-07T03:30:31;4.93;;;4.28;;
3613;SDS011;1821;50.936;6.854;2023-05-07T03:31:17;4.88;;;4.20;;
3613;SDS011;1821;50.936;6.854;2023-05-07T03:32:01;5.30;;;4.10;;
3613;SDS011;1821;50.936;6.854;2023-05-07T03:32:44;6.20;;;4.20;;
3613;SDS011;1821;50.936;6.854;2023-05-07T03:33:26;4.80;;;3.80;;
3613;SDS011;1821;50.936;6.854;2023-05-07T03:34:08;4.75;;;3.70;;
3613;SDS011;1821;50.936;6.854;2023-05-07T03:34:50;4.50;;;3.88;;
3613;SDS011;1821;50.936;6.854;2023-05-07T03:35:33;4.57;;;3.97;;
3613;SDS011;1821;50.936;6.854;2023-05-07T03:36:15;5.93;;;4.07;;
3613;SDS011;1821;50.936;6.854;2023-05-07T03:36:57;5.40;;;3.53;;
3613;SDS011;1821;50.936;6.854;2023-05-07T03:37:40;4.20;;;3.45;;
3613;SDS011;1821;50.936;6.854;2023-05-07T03:38:25;5.60;;;4.20;;
3613;SDS011;1821;50.936;6.854;2023-05-07T03:39:09;5.43;;;3.95;;
3613;SDS011;1821;50.936;6.854;2023-05-07T03:39:51;6.30;;;3.90;;
3613;SDS011;1821;50.936;6.854;2023-05-07T03:40:34;4.38;;;3.80;;
3613;SDS011;1821;50.936;6.854;2023-05-07T03:41:16;5.30;;;4.15;;
3613;SDS011;1821;50.936;6.854;2023-05-07T03:41:58;5.15;;;4.20;;
3613;SDS011;1821;50.936;6.854;2023-05-07T03:42:41;6.07;;;4.18;;
3613;SDS011;1821;50.936;6.854;2023-05-07T03:43:26;7.65;;;4.18;;
3613;SDS011;1821;50.936;6.854;2023-05-07T03:44:09;7.50;;;4.40;;
3613;SDS011;1821;50.936;6.854;2023-05-07T03:44:51;6.18;;;4.43;;
3613;SDS011;1821;50.936;6.854;2023-05-07T03:45:33;5.20;;;4.00;;
3613;SDS011;1821;50.936;6.854;2023-05-07T03:46:15;5.75;;;4.20;;
3613;SDS011;1821;50.936;6.854;2023-05-07T03:46:58;5.22;;;3.85;;
3613;SDS011;1821;50.936;6.854;2023-05-07T03:47:40;5.10;;;4.60;;
3613;SDS011;1821;50.936;6.854;2023-05-07T03:48:22;5.55;;;4.95;;
3613;SDS011;1821;50.936;6.854;2023-05-07T03:49:05;5.80;;;4.38;;
3613;SDS011;1821;50.936;6.854;2023-05-07T03:49:47;5.53;;;4.25;;
3613;SDS011;1821;50.936;6.854;2023-05-07T03:50:31;4.95;;;4.10;;
3613;SDS011;1821;50.936;6.854;2023-05-07T03:51:13;4.93;;;4.20;;
3613;SDS011;1821;50.936;6.854;2023-05-07T03:51:55;5.55;;;4.43;;
3613;SDS011;1821;50.936;6.854;2023-05-07T03:52:38;5.80;;;4.50;;
3613;SDS011;1821;50.936;6.854;2023-05-07T03:53:20;5.28;;;4.35;;
3613;SDS011;1821;50.936;6.854;2023-05-07T03:54:02;4.97;;;4.28;;
3613;SDS011;1821;50.936;6.854;2023-05-07T03:54:45;6.07;;;4.15;;
3613;SDS011;1821;50.936;6.854;2023-05-07T03:55:29;5.20;;;4.03;;
3613;SDS011;1821;50.936;6.854;2023-05-07T03:56:11;5.28;;;4.30;;
3613;SDS011;1821;50.936;6.854;2023-05-07T03:56:54;8.38;;;4.90;;
3613;SDS011;1821;50.936;6.854;2023-05-07T03:57:36;5.95;;;4.55;;
3613;SDS011;1821;50.936;6.854;2023-05-07T03:58:18;5.05;;;4.22;;
3613;SDS011;1821;50.936;6.854;2023-05-07T03:59:00;6.13;;;4.25;;
3613;SDS011;1821;50.936;6.854;2023-05-07T03:59:43;5.90;;;3.88;;
3613;SDS011;1821;50.936;6.854;2023-05-07T04:00:27;5.05;;;4.03;;
3613;SDS011;1821;50.936;6.854;2023-05-07T04:01:12;4.95;;;4.45;;
3613;SDS011;1821;50.936;6.854;2023-05-07T04:01:54;5.22;;;4.55;;
3613;SDS011;1821;50.936;6.854;2023-05-07T04:02:36;6.28;;;4.55;;
3613;SDS011;1821;50.936;6.854;2023-05-07T04:03:19;5.05;;;4.03;;
3613;SDS011;1821;50.936;6.854;2023-05-07T04:04:01;6.70;;;4.60;;
3613;SDS011;1821;50.936;6.854;2023-05-07T04:04:48;4.85;;;4.28;;
3613;SDS011;1821;50.936;6.854;2023-05-07T04:05:30;6.60;;;4.60;;
3613;SDS011;1821;50.936;6.854;2023-05-07T04:06:13;6.43;;;4.35;;
3613;SDS011;1821;50.936;6.854;2023-05-07T04:06:55;4.75;;;4.25;;
3613;SDS011;1821;50.936;6.854;2023-05-07T04:07:38;6.30;;;4.60;;
3613;SDS011;1821;50.936;6.854;2023-05-07T04:08:20;6.72;;;4.65;;
3613;SDS011;1821;50.936;6.854;2023-05-07T04:09:02;5.30;;;4.60;;
3613;SDS011;1821;50.936;6.854;2023-05-07T04:09:44;5.80;;;3.90;;
3613;SDS011;1821;50.936;6.854;2023-05-07T04:10:26;5.90;;;4.22;;
3613;SDS011;1821;50.936;6.854;2023-05-07T04:11:11;5.15;;;4.43;;
3613;SDS011;1821;50.936;6.854;2023-05-07T04:11:54;7.40;;;4.82;;
3613;SDS011;1821;50.936;6.854;2023-05-07T04:12:36;5.18;;;4.60;;
3613;SDS011;1821;50.936;6.854;2023-05-07T04:13:18;5.20;;;4.68;;
3613;SDS011;1821;50.936;6.854;2023-05-07T04:14:03;6.00;;;4.40;;
3613;SDS011;1821;50.936;6.854;2023-05-07T04:14:45;5.30;;;4.53;;
3613;SDS011;1821;50.936;6.854;2023-05-07T04:15:30;5.25;;;4.45;;
3613;SDS011;1821;50.936;6.854;2023-05-07T04:16:12;4.90;;;4.20;;
3613;SDS011;1821;50.936;6.854;2023-05-07T04:16:54;4.93;;;4.25;;
3613;SDS011;1821;50.936;6.854;2023-05-07T04:17:37;6.28;;;4.28;;
3613;SDS011;1821;50.936;6.854;2023-05-07T04:18:21;8.75;;;5.10;;
3613;SDS011;1821;50.936;6.854;2023-05-07T04:19:04;8.15;;;5.18;;
3613;SDS011;1821;50.936;6.854;2023-05-07T04:19:46;6.07;;;4.40;;
3613;SDS011;1821;50.936;6.854;2023-05-07T04:20:29;5.07;;;4.10;;
3613;SDS011;1821;50.936;6.854;2023-05-07T04:21:20;5.05;;;4.35;;
3613;SDS011;1821;50.936;6.854;2023-05-07T04:22:03;5.60;;;4.45;;
3613;SDS011;1821;50.936;6.854;2023-05-07T04:22:45;4.65;;;4.07;;
3613;SDS011;1821;50.936;6.854;2023-05-07T04:23:28;5.25;;;4.30;;
3613;SDS011;1821;50.936;6.854;2023-05-07T04:24:10;7.63;;;4.50;;
3613;SDS011;1821;50.936;6.854;2023-05-07T04:24:54;8.18;;;4.57;;
3613;SDS011;1821;50.936;6.854;2023-05-07T04:25:37;7.00;;;4.38;;
3613;SDS011;1821;50.936;6.854;2023-05-07T04:26:22;5.15;;;4.65;;
3613;SDS011;1821;50.936;6.854;2023-05-07T04:27:07;6.47;;;4.70;;
3613;SDS011;1821;50.936;6.854;2023-05-07T04:27:50;6.93;;;4.43;;